createdAt,value
2019-04-29T00:03:06.298Z,10.61
2019-04-29T00:08:07.866Z,10.55
2019-04-29T00:13:09.763Z,10.48
2019-04-29T00:18:18.628Z,10.45
2019-04-29T00:23:20.273Z,10.52
2019-04-29T00:28:21.825Z,10.58
2019-04-29T00:33:23.602Z,10.55
2019-04-29T00:38:43.020Z,10.63
2019-04-29T00:43:48.905Z,10.59
2019-04-29T00:48:50.473Z,10.52
2019-04-29T00:53:55.614Z,10.44
2019-04-29T00:58:57.154Z,10.42
2019-04-29T01:03:58.770Z,10.44
2019-04-29T01:09:00.423Z,10.43
2019-04-29T01:14:02.082Z,10.39
2019-04-29T01:19:04.081Z,10.35
2019-04-29T01:24:05.953Z,10.36
2019-04-29T01:29:08.453Z,10.35
2019-04-29T01:34:29.682Z,10.31
2019-04-29T01:39:42.633Z,10.23
2019-04-29T01:44:44.200Z,10.18
2019-04-29T01:49:45.779Z,10.31
2019-04-29T01:54:47.352Z,10.34
2019-04-29T01:59:48.893Z,10.36
2019-04-29T02:04:50.551Z,10.34
2019-04-29T02:10:01.266Z,10.36
2019-04-29T02:15:03.830Z,10.31
2019-04-29T02:20:05.761Z,10.20
2019-04-29T02:25:12.338Z,10.29
2019-04-29T02:30:33.919Z,10.27
2019-04-29T02:35:35.482Z,10.24
2019-04-29T02:40:44.477Z,10.22
2019-04-29T02:45:46.122Z,10.19
2019-04-29T02:50:47.703Z,10.06
2019-04-29T02:55:51.850Z,9.97
2019-04-29T03:01:13.256Z,9.91
2019-04-29T03:06:14.938Z,9.97
2019-04-29T03:11:18.158Z,9.93
2019-04-29T03:16:19.815Z,9.75
2019-04-29T03:21:26.138Z,9.67
2019-04-29T03:26:27.794Z,9.73
2019-04-29T03:31:29.493Z,9.81
2019-04-29T03:36:31.051Z,9.80
2019-04-29T03:41:32.610Z,9.79
2019-04-29T03:46:34.281Z,9.77
2019-04-29T03:51:35.936Z,9.75
2019-04-29T03:56:38.241Z,9.70
2019-04-29T04:02:05.760Z,9.67
2019-04-29T04:07:25.850Z,9.67
2019-04-29T04:12:27.448Z,9.68
2019-04-29T04:17:37.869Z,9.69
2019-04-29T04:22:46.119Z,9.69
2019-04-29T04:27:47.996Z,9.72
2019-04-29T04:32:49.554Z,9.74
2019-04-29T04:37:51.128Z,9.78
2019-04-29T04:42:52.691Z,9.80
2019-04-29T04:47:54.274Z,9.78
2019-04-29T04:52:55.849Z,9.75
2019-04-29T04:57:57.396Z,9.74
2019-04-29T05:02:58.958Z,9.75
2019-04-29T05:08:06.753Z,9.77
2019-04-29T05:13:08.283Z,9.81
2019-04-29T05:18:09.850Z,9.84
2019-04-29T05:23:11.435Z,9.79
2019-04-29T05:28:12.979Z,9.80
2019-04-29T05:33:14.659Z,9.78
2019-04-29T05:38:21.208Z,9.77
2019-04-29T05:43:32.212Z,9.74
2019-04-29T05:48:33.520Z,9.76
2019-04-29T05:53:41.958Z,9.76
2019-04-29T05:58:43.496Z,9.77
2019-04-29T06:03:45.178Z,9.78
2019-04-29T06:08:46.724Z,9.77
2019-04-29T06:13:48.296Z,9.75
2019-04-29T06:18:49.944Z,9.69
2019-04-29T06:23:54.468Z,9.72
2019-04-29T06:28:55.110Z,9.70
2019-04-29T06:34:00.717Z,9.67
2019-04-29T06:39:00.318Z,9.65
2019-04-29T06:44:06.682Z,9.65
2019-04-29T06:49:10.549Z,9.65
2019-04-29T06:54:08.949Z,9.61
2019-04-29T06:59:12.259Z,9.57
2019-04-29T07:04:13.994Z,9.58
2019-04-29T07:09:15.564Z,9.55
2019-04-29T07:14:17.395Z,9.61
2019-04-29T07:19:22.226Z,9.65
2019-04-29T07:24:23.012Z,9.61
2019-04-29T07:29:29.560Z,9.62
2019-04-29T07:34:28.984Z,9.62
2019-04-29T07:39:33.390Z,9.64
2019-04-29T07:44:48.813Z,9.60
2019-04-29T07:49:51.424Z,9.57
2019-04-29T07:54:55.029Z,9.54
2019-04-29T07:59:55.401Z,9.56
2019-04-29T08:04:56.972Z,9.50
2019-04-29T08:09:59.042Z,9.49
2019-04-29T08:15:07.524Z,9.50
2019-04-29T08:20:06.395Z,9.52
2019-04-29T08:25:08.374Z,9.56
2019-04-29T08:30:11.453Z,9.53
2019-04-29T08:35:13.531Z,9.50
2019-04-29T08:40:16.746Z,9.50
2019-04-29T08:45:39.086Z,9.53
2019-04-29T08:50:40.492Z,9.57
2019-04-29T08:55:42.162Z,9.59
2019-04-29T09:05:46.166Z,9.53
2019-04-29T09:10:47.450Z,9.49
2019-04-29T09:15:49.021Z,9.50
2019-04-29T09:20:50.576Z,9.50
2019-04-29T09:26:05.738Z,9.48
2019-04-29T09:31:07.320Z,9.47
2019-04-29T09:36:09.597Z,9.47
2019-04-29T09:41:26.070Z,9.48
2019-04-29T09:46:34.494Z,9.46
2019-04-29T09:51:34.100Z,9.48
2019-04-29T09:56:35.713Z,9.46
2019-04-29T10:06:45.231Z,9.51
2019-04-29T10:11:46.785Z,9.48
2019-04-29T10:17:23.219Z,9.45
2019-04-29T10:22:24.797Z,9.40
2019-04-29T10:27:26.380Z,9.41
2019-04-29T10:32:28.045Z,9.40
2019-04-29T10:37:32.397Z,9.44
2019-04-29T10:42:39.242Z,9.44
2019-04-29T10:47:54.512Z,9.40
2019-04-29T10:53:57.815Z,9.39
2019-04-29T10:58:59.496Z,9.36
2019-04-29T11:04:02.758Z,9.38
2019-04-29T11:09:25.553Z,9.38
2019-04-29T11:14:27.218Z,9.43
2019-04-29T11:19:28.887Z,9.42
2019-04-29T11:25:40.375Z,9.43
2019-04-29T11:30:41.279Z,9.42
2019-04-29T11:35:52.968Z,9.46
2019-04-29T11:40:55.958Z,9.48
2019-04-29T11:45:57.637Z,9.52
2019-04-29T11:51:15.693Z,9.50
2019-04-29T11:56:17.265Z,9.56
2019-04-29T12:01:59.662Z,9.61
2019-04-29T12:07:00.972Z,9.64
2019-04-29T12:12:02.785Z,9.68
2019-04-29T12:17:26.889Z,9.69
2019-04-29T12:22:30.872Z,9.68
2019-04-29T12:27:32.040Z,9.65
2019-04-29T12:32:43.552Z,9.64
2019-04-29T12:38:05.837Z,9.66
2019-04-29T12:43:23.734Z,9.67
2019-04-29T12:48:25.497Z,9.72
2019-04-29T12:53:27.186Z,9.78
2019-04-29T12:58:28.890Z,9.78
2019-04-29T13:03:41.121Z,9.79
2019-04-29T13:08:48.725Z,9.81
2019-04-29T13:13:51.381Z,9.84
2019-04-29T13:19:14.515Z,9.86
2019-04-29T13:24:18.255Z,9.88
2019-04-29T13:29:25.815Z,9.90
2019-04-29T13:34:24.085Z,9.93
2019-04-29T13:39:38.375Z,9.97
2019-04-29T13:44:26.853Z,10.00
2019-04-29T13:49:40.340Z,10.04
2019-04-29T13:54:43.940Z,10.07
2019-04-29T13:59:56.954Z,10.08
2019-04-29T14:05:02.231Z,10.12
2019-04-29T14:10:04.580Z,10.12
2019-04-29T14:15:06.371Z,10.15
2019-04-29T14:20:10.725Z,10.18
2019-04-29T14:25:13.392Z,10.22
2019-04-29T14:30:16.892Z,10.22
2019-04-29T14:35:25.327Z,10.26
2019-04-29T14:40:26.892Z,10.28
2019-04-29T14:45:48.224Z,10.31
2019-04-29T14:50:54.253Z,10.38
2019-04-29T14:55:53.529Z,10.38
2019-04-29T15:01:23.414Z,10.46
2019-04-29T15:06:24.084Z,10.51
2019-04-29T15:11:31.869Z,10.56
2019-04-29T15:16:46.419Z,10.60
2019-04-29T15:21:51.518Z,10.64
2019-04-29T15:26:53.148Z,10.70
2019-04-29T15:31:54.763Z,10.75
2019-04-29T15:36:56.487Z,10.79
2019-04-29T15:42:01.969Z,10.82
2019-04-29T15:47:01.602Z,10.87
2019-04-29T15:52:03.373Z,10.91
2019-04-29T15:57:09.099Z,10.92
2019-04-29T16:02:09.280Z,10.89
2019-04-29T16:07:28.070Z,10.87
2019-04-29T16:12:37.446Z,10.85
2019-04-29T16:17:39.431Z,10.86
2019-04-29T16:22:41.164Z,10.86
2019-04-29T16:32:46.456Z,10.86
2019-04-29T16:37:48.092Z,10.83
2019-04-29T16:42:56.736Z,10.84
2019-04-29T16:47:58.332Z,10.82
2019-04-29T16:52:59.938Z,10.84
2019-04-29T16:58:07.769Z,10.84
2019-04-29T17:03:07.980Z,10.86
2019-04-29T17:08:14.978Z,10.87
2019-04-29T17:13:16.671Z,10.89
2019-04-29T17:18:16.873Z,10.89
2019-04-29T17:23:24.180Z,10.89
2019-04-29T17:28:29.094Z,10.91
2019-04-29T17:35:15.774Z,10.87
2019-04-29T17:35:18.745Z,10.92
2019-04-29T17:38:52.859Z,10.94
2019-04-29T17:44:18.761Z,10.94
2019-04-29T17:49:36.505Z,10.96
2019-04-29T17:54:40.747Z,10.97
2019-04-29T18:00:05.088Z,10.96
2019-04-29T18:05:33.028Z,10.96
2019-04-29T18:10:39.971Z,10.96
2019-04-29T18:15:57.868Z,10.96
2019-04-29T18:21:16.009Z,10.95
2019-04-29T18:26:25.815Z,10.96
2019-04-29T18:31:30.587Z,10.94
2019-04-29T18:36:31.129Z,10.95
2019-04-29T18:41:32.727Z,10.96
2019-04-29T18:46:35.194Z,10.95
2019-04-29T18:51:36.991Z,10.96
2019-04-29T18:56:38.546Z,10.99
2019-04-29T19:01:40.118Z,11.00
2019-04-29T19:06:41.741Z,11.03
2019-04-29T19:11:43.502Z,11.02
2019-04-29T19:16:45.886Z,11.04
2019-04-29T19:21:47.741Z,11.05
2019-04-29T19:26:49.388Z,11.06
2019-04-29T19:31:51.109Z,11.07
2019-04-29T19:36:55.791Z,11.07
2019-04-29T19:41:56.337Z,11.07
2019-04-29T19:46:59.132Z,11.05
2019-04-29T19:52:01.010Z,11.02
2019-04-29T19:57:04.912Z,11.01
2019-04-29T20:02:10.044Z,10.99
2019-04-29T20:07:10.996Z,10.99
2019-04-29T20:12:16.892Z,10.95
2019-04-29T20:17:37.050Z,10.94
2019-04-29T20:22:43.385Z,10.93
2019-04-29T20:27:43.486Z,10.93
2019-04-29T20:32:46.232Z,10.91
2019-04-29T20:37:55.439Z,10.90
2019-04-29T20:42:51.527Z,10.90
2019-04-29T20:47:53.470Z,10.89
2019-04-29T20:53:21.294Z,10.88
2019-04-29T20:58:23.523Z,10.85
2019-04-29T21:03:30.284Z,10.79
2019-04-29T21:08:30.382Z,10.76
2019-04-29T21:13:44.166Z,10.70
2019-04-29T21:18:52.963Z,10.66
2019-04-29T21:23:49.353Z,10.63
2019-04-29T21:28:50.925Z,10.60
2019-04-29T21:33:55.389Z,10.59
2019-04-29T21:39:18.542Z,10.52
2019-04-29T21:44:23.715Z,10.47
2019-04-29T21:49:25.689Z,10.39
2019-04-29T21:54:27.291Z,10.39
2019-04-29T21:59:28.868Z,10.36
2019-04-29T22:04:32.842Z,10.25
2019-04-29T22:09:36.352Z,10.16
2019-04-29T22:14:37.874Z,10.08
2019-04-29T22:19:39.456Z,10.03
2019-04-29T22:24:41.151Z,9.97
2019-04-29T22:29:42.854Z,9.91
2019-04-29T22:34:45.182Z,9.86
2019-04-29T22:39:46.945Z,9.85
2019-04-29T22:44:48.616Z,9.78
2019-04-29T22:49:51.804Z,9.55
2019-04-29T22:54:57.878Z,9.44
2019-04-29T22:59:57.274Z,9.38
2019-04-29T23:04:58.979Z,9.36
2019-04-29T23:10:00.680Z,9.41
2019-04-29T23:15:02.442Z,9.45
2019-04-29T23:20:16.484Z,9.43
2019-04-29T23:25:26.610Z,9.38
2019-04-29T23:30:27.000Z,9.27
2019-04-29T23:35:28.690Z,9.23
2019-04-29T23:40:30.243Z,9.15
2019-04-29T23:45:31.808Z,9.14
2019-04-29T23:50:35.782Z,9.12
2019-04-29T23:55:36.942Z,9.08
